Time;durP1;ratioP1;P1;durP2;ratioP2;P2;SDS_P1;SDS_P2;PMS_P1;PMS_P2;Temp;Humidity;BMP_temperature;BMP_pressure;BME280_temperature;BME280_humidity;BME280_pressure;Samples;Min_cycle;Max_cycle;Signal;HPM_P1;HPM_P2
2022/05/18 00:01:30;;;;;;;10.82;9.93;;;;;;;14.29;66.31;101495.53;5056594;28;20452;-17
2022/05/18 00:03:55;;;;;;;11.05;10.05;;;;;;;14.27;66.29;101497.34;5056671;28;20532;-17
2022/05/18 00:06:21;;;;;;;10.73;9.80;;;;;;;14.24;65.74;101492.97;5053262;28;20078;-17
2022/05/18 00:08:46;;;;;;;10.65;9.75;;;;;;;14.21;65.81;101488.53;5053623;28;20029;-17
2022/05/18 00:11:14;;;;;;;11.27;10.30;;;;;;;14.20;66.52;101496.50;5056671;28;20024;-18
2022/05/18 00:13:40;;;;;;;13.10;10.52;;;;;;;14.22;66.41;101494.72;5058947;28;20147;-18
2022/05/18 00:16:06;;;;;;;12.10;11.00;;;;;;;14.18;66.34;101499.22;5061697;28;20125;-18
2022/05/18 00:18:31;;;;;;;11.05;10.02;;;;;;;14.16;66.30;101506.28;5058591;28;20654;-17
2022/05/18 00:20:59;;;;;;;11.57;10.48;;;;;;;14.15;65.87;101501.88;5056928;28;20044;-17
2022/05/18 00:23:24;;;;;;;11.27;10.35;;;;;;;14.13;66.24;101500.16;5053192;28;20039;-17
2022/05/18 00:25:49;;;;;;;11.13;10.07;;;;;;;14.10;66.34;101501.03;5052784;28;20020;-17
2022/05/18 00:28:15;;;;;;;11.60;10.50;;;;;;;14.09;66.49;101493.97;5056405;28;20095;-18
2022/05/18 00:30:40;;;;;;;11.82;10.82;;;;;;;14.06;66.60;101510.81;5060500;28;20029;-17
2022/05/18 00:33:10;;;;;;;10.88;9.88;;;;;;;14.08;66.32;101508.16;5062500;28;20369;-17
2022/05/18 00:35:37;;;;;;;10.00;9.13;;;;;;;14.05;66.42;101513.47;5059702;28;20484;-17
2022/05/18 00:38:03;;;;;;;10.32;9.43;;;;;;;14.03;66.46;101516.16;5057335;28;20021;-17
2022/05/18 00:40:29;;;;;;;10.77;9.73;;;;;;;14.00;66.51;101515.31;5061264;28;20033;-17
2022/05/18 00:42:55;;;;;;;11.43;10.40;;;;;;;13.96;66.39;101515.34;5048876;28;20051;-17
2022/05/18 00:45:20;;;;;;;11.68;10.57;;;;;;;13.94;66.19;101511.81;5057582;28;20162;-17
2022/05/18 00:47:46;;;;;;;10.63;9.63;;;;;;;13.97;66.57;101517.09;5057182;28;20036;-18
2022/05/18 00:50:32;;;;;;;11.18;9.93;;;;;;;13.95;66.92;101516.25;5059833;28;20398;-17
2022/05/18 00:53:02;;;;;;;11.48;10.43;;;;;;;13.96;66.62;101515.34;5061058;28;20103;-17
2022/05/18 00:55:31;;;;;;;12.65;11.48;;;;;;;13.94;66.97;101516.25;5060852;28;20018;-17
2022/05/18 00:57:59;;;;;;;11.88;10.77;;;;;;;13.92;66.86;101518.91;5051161;28;20427;-17
2022/05/18 01:00:25;;;;;;;11.75;10.43;;;;;;;13.94;67.25;101519.75;5053325;28;20036;-17
2022/05/18 01:03:05;;;;;;;12.85;10.40;;;;;;;13.89;66.70;101510.97;5052228;28;20392;-17
2022/05/18 01:05:32;;;;;;;12.00;10.90;;;;;;;13.89;67.19;101513.63;5054549;28;20025;-17
2022/05/18 01:07:58;;;;;;;11.98;10.88;;;;;;;13.87;66.72;101517.19;5054998;28;20140;-18
2022/05/18 01:10:26;;;;;;;11.38;10.38;;;;;;;13.88;67.17;101519.84;5053644;28;20059;-18
2022/05/18 01:12:51;;;;;;;11.40;10.32;;;;;;;13.86;67.22;101508.34;5053307;28;20024;-17
2022/05/18 01:15:19;;;;;;;10.48;9.57;;;;;;;13.83;66.82;101514.56;5053458;28;20131;-17
2022/05/18 01:17:46;;;;;;;10.55;9.60;;;;;;;13.84;67.63;101515.47;5052648;28;20031;-17
2022/05/18 01:20:19;;;;;;;11.55;10.52;;;;;;;13.82;66.77;101527.84;5057314;28;20036;-17
2022/05/18 01:22:46;;;;;;;11.70;10.57;;;;;;;13.83;66.96;101530.47;5055059;28;20048;-17
2022/05/18 01:25:24;;;;;;;11.32;10.27;;;;;;;13.82;66.78;101538.44;5052846;28;20522;-17
2022/05/18 01:27:50;;;;;;;11.23;10.25;;;;;;;13.81;66.67;101534.03;5061452;28;20408;-17
2022/05/18 01:30:15;;;;;;;11.75;10.68;;;;;;;13.78;67.00;101526.09;5057060;28;20071;-17
2022/05/18 01:32:47;;;;;;;11.60;10.45;;;;;;;13.78;66.92;101532.31;5057211;28;20040;-18
2022/05/18 01:35:18;;;;;;;12.38;11.25;;;;;;;13.78;66.87;101531.41;5059785;28;20025;-18
2022/05/18 01:37:43;;;;;;;;;;;;;;;13.80;67.10;101534.91;5061328;28;20032;-17
2022/05/18 01:40:28;;;;;;;12.10;10.97;;;;;;;13.77;66.85;101534.97;5060698;28;19939;-18
2022/05/18 01:43:04;;;;;;;11.57;10.38;;;;;;;13.76;67.19;101530.53;5057833;28;20413;-17
2022/05/18 01:45:29;;;;;;;11.05;10.10;;;;;;;13.84;67.80;101529.56;5061705;28;20029;-18
2022/05/18 01:47:54;;;;;;;11.85;10.65;;;;;;;13.80;66.89;101540.22;5056970;28;20020;-17
2022/05/18 01:50:25;;;;;;;12.07;10.90;;;;;;;13.77;67.01;101545.56;5057133;28;20075;-17
2022/05/18 01:52:50;;;;;;;11.80;10.70;;;;;;;13.80;67.65;101540.22;5055558;28;20044;-17
2022/05/18 01:55:17;;;;;;;11.73;10.73;;;;;;;13.84;67.29;101536.66;5058346;28;20037;-17
2022/05/18 01:57:43;;;;;;;12.05;10.98;;;;;;;13.85;67.44;101539.28;5059112;28;20074;-17
2022/05/18 02:00:11;;;;;;;11.98;10.95;;;;;;;13.80;67.18;101534.91;5059157;28;20036;-17
2022/05/18 02:02:36;;;;;;;11.32;10.30;;;;;;;13.84;67.03;101544.63;5062848;28;20058;-17
2022/05/18 02:05:01;;;;;;;11.77;10.57;;;;;;;13.80;66.90;101540.22;5061256;28;20021;-17
2022/05/18 02:07:27;;;;;;;11.02;10.23;;;;;;;13.79;67.12;101541.13;5063636;28;20035;-17
2022/05/18 02:09:52;;;;;;;11.43;10.32;;;;;;;13.81;67.79;101542.00;5058968;28;20021;-17
2022/05/18 02:12:18;;;;;;;11.38;10.27;;;;;;;13.80;67.23;101548.16;5056045;28;20090;-17
2022/05/18 02:14:43;;;;;;;11.05;10.07;;;;;;;13.77;68.00;101548.22;5057439;28;20025;-17
2022/05/18 02:17:08;;;;;;;12.00;10.80;;;;;;;13.84;67.45;101552.59;5059193;28;20052;-17
2022/05/18 02:19:34;;;;;;;12.60;11.30;;;;;;;13.78;67.16;101539.38;5056601;28;20060;-17
2022/05/18 02:22:00;;;;;;;11.30;10.30;;;;;;;13.88;68.00;101546.34;5050787;28;20116;-17
2022/05/18 02:24:25;;;;;;;12.13;10.95;;;;;;;13.87;67.57;101535.75;5069420;28;20036;-17
2022/05/18 02:26:50;;;;;;;12.73;11.52;;;;;;;13.88;68.63;101541.06;5052796;28;20569;-17
2022/05/18 02:29:16;;;;;;;12.80;11.57;;;;;;;13.88;68.20;101543.69;5056488;28;20108;-17
2022/05/18 02:31:41;;;;;;;12.18;11.07;;;;;;;13.93;69.19;101536.56;5061907;28;20115;-18
2022/05/18 02:34:06;;;;;;;13.70;11.90;;;;;;;13.87;69.20;101541.06;5060577;28;20133;-17
2022/05/18 02:36:31;;;;;;;13.07;11.82;;;;;;;13.82;67.51;101543.75;5055185;28;20515;-17
2022/05/18 02:38:57;;;;;;;11.95;10.85;;;;;;;13.84;68.48;101541.97;5061037;28;20016;-17
2022/05/18 02:41:22;;;;;;;12.15;11.05;;;;;;;13.83;68.29;101542.84;5056239;28;20071;-17
2022/05/18 02:43:48;;;;;;;11.60;10.43;;;;;;;13.90;68.28;101539.25;5057938;28;20044;-17
2022/05/18 02:46:18;;;;;;;12.73;11.60;;;;;;;13.91;68.65;101542.78;5058601;28;20033;-17
2022/05/18 02:48:45;;;;;;;12.40;11.23;;;;;;;13.87;68.33;101544.56;5056434;28;20098;-17
2022/05/18 02:51:12;;;;;;;11.73;10.73;;;;;;;13.88;68.03;101551.66;5056127;28;20546;-17
2022/05/18 02:53:37;;;;;;;10.93;10.07;;;;;;;13.85;68.31;101546.38;5054433;28;20028;-17
2022/05/18 02:56:07;;;;;;;11.15;9.98;;;;;;;13.86;67.70;101548.13;5057569;28;20025;-17
2022/05/18 02:58:56;;;;;;;12.57;11.38;;;;;;;13.80;66.97;101545.53;5062086;28;20032;-17
2022/05/18 03:01:27;;;;;;;11.77;10.68;;;;;;;13.77;67.29;101548.22;5065187;28;20046;-17
2022/05/18 03:03:53;;;;;;;12.63;11.43;;;;;;;13.77;67.77;101540.28;5056995;28;20476;-17
2022/05/18 03:06:21;;;;;;;10.57;9.65;;;;;;;13.77;67.61;101545.56;5064884;28;20039;-17
2022/05/18 03:08:46;;;;;;;11.48;10.45;;;;;;;13.80;68.56;101545.53;5060214;28;20500;-18
2022/05/18 03:11:12;;;;;;;10.60;9.73;;;;;;;13.73;67.97;101545.59;5061605;28;20056;-17
2022/05/18 03:13:38;;;;;;;11.65;10.65;;;;;;;13.69;67.69;101549.16;5060561;28;20020;-17
2022/05/18 03:16:04;;;;;;;10.63;9.75;;;;;;;13.68;67.61;101554.47;5058323;28;20505;-17
2022/05/18 03:18:29;;;;;;;10.98;9.88;;;;;;;13.64;67.49;101556.25;5059175;28;20025;-17
2022/05/18 03:23:39;;;;;;;10.75;9.85;;;;;;;13.73;67.59;101565.91;5063685;28;20090;-17
2022/05/18 03:26:17;;;;;;;11.45;10.45;;;;;;;13.69;67.78;101565.06;5058681;28;20028;-17
2022/05/18 03:28:44;;;;;;;11.98;10.88;;;;;;;13.73;68.24;101572.09;5058098;28;20029;-17
2022/05/18 03:31:10;;;;;;;11.48;10.38;;;;;;;13.65;67.26;101570.41;5059998;28;20484;-17
2022/05/18 03:33:36;;;;;;;11.50;10.30;;;;;;;13.64;67.83;101566.84;5057664;28;20025;-17
2022/05/18 03:36:03;;;;;;;11.35;10.32;;;;;;;13.69;68.28;101574.78;5053598;28;20063;-17
2022/05/18 03:38:29;;;;;;;11.93;10.93;;;;;;;13.68;68.47;101573.91;5055348;28;20021;-17
2022/05/18 03:40:54;;;;;;;11.60;10.60;;;;;;;13.68;67.86;101573.03;5056593;28;20055;-17
2022/05/18 03:43:20;;;;;;;11.65;10.63;;;;;;;13.65;67.44;101568.63;5059339;28;20060;-17
2022/05/18 03:45:46;;;;;;;11.52;10.43;;;;;;;13.64;68.13;101571.28;5058810;28;20106;-17
2022/05/18 03:48:12;;;;;;;11.10;10.10;;;;;;;13.60;67.74;101570.41;5059167;28;20137;-17
2022/05/18 03:50:39;;;;;;;12.13;11.02;;;;;;;13.57;67.97;101570.47;5065325;28;20380;-17
2022/05/18 03:53:06;;;;;;;11.38;10.38;;;;;;;13.60;67.92;101571.31;5061817;28;20377;-17
2022/05/18 03:55:32;;;;;;;11.90;10.90;;;;;;;13.62;68.02;101576.59;5062656;28;20028;-17
2022/05/18 03:57:57;;;;;;;11.13;10.05;;;;;;;13.65;68.00;101563.34;5062830;28;20028;-17
2022/05/18 04:00:23;;;;;;;11.43;10.32;;;;;;;13.77;68.55;101577.38;5064831;28;20304;-17
2022/05/18 04:02:48;;;;;;;11.98;10.93;;;;;;;13.81;68.78;101568.50;5060288;28;20145;-17
2022/05/18 04:05:16;;;;;;;11.70;10.55;;;;;;;13.84;68.19;101574.66;5060262;28;20060;-17
2022/05/18 04:07:41;;;;;;;11.32;10.23;;;;;;;13.87;67.58;101567.56;5056338;28;20047;-17
2022/05/18 04:10:08;;;;;;;10.75;9.85;;;;;;;13.89;67.51;101579.03;5059107;28;20485;-17
2022/05/18 04:12:34;;;;;;;11.35;10.35;;;;;;;13.90;67.18;101579.03;5063395;28;20024;-17
2022/05/18 04:15:00;;;;;;;11.85;10.85;;;;;;;13.92;67.33;101582.56;5059132;28;20031;-17
2022/05/18 04:17:25;;;;;;;11.35;10.35;;;;;;;13.93;67.11;101583.41;5064003;28;20384;-17
2022/05/18 04:19:51;;;;;;;11.13;10.18;;;;;;;13.93;66.90;101588.72;5061551;28;20471;-17
2022/05/18 04:22:17;;;;;;;10.88;9.98;;;;;;;13.96;66.84;101589.59;5066061;28;20021;-17
2022/05/18 04:24:43;;;;;;;10.65;9.57;;;;;;;13.96;67.09;101600.19;5062331;28;20020;-17
2022/05/18 04:27:10;;;;;;;11.18;10.18;;;;;;;14.00;67.05;101602.84;5060960;28;20397;-17
2022/05/18 04:29:35;;;;;;;11.18;10.27;;;;;;;14.01;66.87;101599.28;5056094;28;20021;-17
2022/05/18 04:32:01;;;;;;;10.25;9.25;;;;;;;14.03;66.64;101608.97;5061263;28;20085;-17
2022/05/18 04:34:26;;;;;;;9.75;8.88;;;;;;;14.06;66.85;101610.72;5065145;28;20036;-17
2022/05/18 04:36:52;;;;;;;10.77;9.77;;;;;;;14.08;66.81;101604.50;5060982;28;20120;-17
2022/05/18 04:39:17;;;;;;;11.40;10.40;;;;;;;14.11;66.86;101612.44;5080494;28;20025;-17
2022/05/18 04:41:43;;;;;;;10.93;9.93;;;;;;;14.15;66.91;101621.25;5059510;28;20409;-17
2022/05/18 04:44:08;;;;;;;11.27;10.25;;;;;;;14.17;66.99;101624.75;5058593;28;20029;-17
2022/05/18 04:46:33;;;;;;;11.02;10.13;;;;;;;14.20;66.79;101632.69;5062864;28;20047;-17
2022/05/18 04:48:59;;;;;;;11.20;10.30;;;;;;;14.22;66.97;101633.59;5058598;28;20021;-17
2022/05/18 04:51:24;;;;;;;11.95;10.85;;;;;;;14.24;67.02;101637.09;5062663;28;20116;-17
2022/05/18 04:53:50;;;;;;;11.18;10.27;;;;;;;14.28;67.12;101648.56;5058901;28;20075;-17
2022/05/18 04:56:16;;;;;;;11.13;10.23;;;;;;;14.34;67.10;101637.03;5060931;28;20028;-17
2022/05/18 04:58:41;;;;;;;11.82;10.73;;;;;;;14.35;67.15;101642.31;5058781;28;20024;-17
2022/05/18 05:01:08;;;;;;;11.40;10.48;;;;;;;14.36;67.50;101635.22;5063708;28;20127;-17
2022/05/18 05:03:34;;;;;;;11.43;10.43;;;;;;;14.39;67.32;101634.28;5057014;28;20116;-17
2022/05/18 05:06:01;;;;;;;11.70;10.70;;;;;;;14.43;67.10;101641.34;5062162;28;20484;-17
2022/05/18 05:08:26;;;;;;;11.50;10.40;;;;;;;14.44;67.02;101637.81;5061069;28;20033;-17
2022/05/18 05:10:51;;;;;;;11.43;10.48;;;;;;;14.47;67.13;101643.94;5059786;28;20020;-17
2022/05/18 05:13:17;;;;;;;11.52;10.52;;;;;;;14.49;67.16;101644.84;5053682;28;20068;-17
2022/05/18 05:15:44;;;;;;;11.15;10.05;;;;;;;14.53;67.26;101647.44;5060712;28;20052;-17
2022/05/18 05:18:09;;;;;;;11.57;10.55;;;;;;;14.55;67.26;101641.22;5058632;28;20504;-17
2022/05/18 05:20:35;;;;;;;11.27;10.38;;;;;;;14.58;66.99;101646.47;5064203;28;20032;-17
2022/05/18 05:23:00;;;;;;;11.00;10.00;;;;;;;14.61;66.90;101646.47;5060656;28;20029;-17
2022/05/18 05:25:25;;;;;;;11.52;10.43;;;;;;;14.65;66.82;101646.44;5060866;28;20040;-17
2022/05/18 05:27:51;;;;;;;10.80;9.85;;;;;;;14.67;66.91;101645.50;5063938;28;20035;-17
2022/05/18 05:30:16;;;;;;;10.73;9.80;;;;;;;14.73;66.97;101639.25;5059734;28;20024;-17
2022/05/18 05:32:42;;;;;;;11.15;10.18;;;;;;;14.75;66.89;101638.34;5062359;28;20045;-17
2022/05/18 05:35:08;;;;;;;11.52;10.52;;;;;;;14.82;66.60;101636.56;5057056;28;20027;-17
2022/05/18 05:37:34;;;;;;;12.23;11.00;;;;;;;14.87;66.47;101639.13;5060218;28;20017;-17
2022/05/18 05:39:59;;;;;;;11.70;10.60;;;;;;;14.92;66.48;101629.34;5055946;28;20116;-17
2022/05/18 05:42:24;;;;;;;12.13;11.05;;;;;;;14.98;66.66;101629.25;5078782;28;20103;-17
2022/05/18 05:44:50;;;;;;;12.98;11.85;;;;;;;15.07;67.37;101632.72;5064023;28;20103;-17
2022/05/18 05:47:16;;;;;;;13.98;12.77;;;;;;;15.15;67.72;101630.84;5062086;28;20107;-17
2022/05/18 05:49:42;;;;;;;13.05;11.95;;;;;;;15.22;68.19;101640.50;5062528;28;20017;-17
2022/05/18 05:52:09;;;;;;;14.27;13.02;;;;;;;15.29;68.84;101640.38;5063918;28;20632;-17
2022/05/18 05:54:35;;;;;;;14.85;13.45;;;;;;;15.36;69.50;101644.72;5044079;28;20059;-17
2022/05/18 05:57:04;;;;;;;15.52;14.05;;;;;;;15.40;70.86;101651.75;5063617;28;20056;-17
2022/05/18 05:59:31;;;;;;;15.18;13.77;;;;;;;15.49;70.04;101656.97;5067181;28;20031;-17
2022/05/18 06:02:07;;;;;;;15.50;14.05;;;;;;;15.58;67.83;101649.75;5060508;28;20098;-17
2022/05/18 06:04:33;;;;;;;16.15;14.57;;;;;;;15.64;67.72;101649.69;5057471;28;20024;-17
2022/05/18 06:06:59;;;;;;;15.25;13.88;;;;;;;15.72;68.57;101650.44;5060844;28;20033;-17
2022/05/18 06:09:24;;;;;;;15.57;13.82;;;;;;;15.83;68.12;101657.34;5061176;28;20020;-17
2022/05/18 06:11:50;;;;;;;17.90;16.10;;;;;;;15.89;68.78;101659.94;5058062;28;20534;-18
2022/05/18 06:14:16;;;;;;;14.55;13.18;;;;;;;15.97;68.65;101667.84;5059166;28;20445;-17
2022/05/18 06:16:41;;;;;;;17.27;15.68;;;;;;;16.02;69.81;101658.88;5061667;28;20056;-17
2022/05/18 06:19:07;;;;;;;17.13;15.57;;;;;;;16.10;70.74;101664.06;5057433;28;20496;-17
2022/05/18 06:21:32;;;;;;;17.40;15.75;;;;;;;16.16;69.59;101658.63;5062200;28;20038;-17
2022/05/18 06:23:58;;;;;;;17.50;15.85;;;;;;;16.22;70.35;101662.97;5065249;28;20039;-17
2022/05/18 06:26:25;;;;;;;16.55;15.05;;;;;;;16.32;71.23;101662.81;5075758;28;20461;-18
2022/05/18 06:28:50;;;;;;;17.23;15.55;;;;;;;16.41;70.96;101668.00;5068824;28;20028;-17
2022/05/18 06:31:16;;;;;;;17.15;15.48;;;;;;;16.50;70.82;101670.47;5062423;28;20055;-17
2022/05/18 06:33:41;;;;;;;18.20;15.35;;;;;;;16.59;68.99;101681.84;5066946;28;20235;-17
2022/05/18 06:36:07;;;;;;;17.38;15.60;;;;;;;16.69;70.25;101678.13;5068500;28;20067;-17
2022/05/18 06:38:32;;;;;;;18.08;16.40;;;;;;;16.82;70.36;101677.88;5065884;28;20020;-17
2022/05/18 06:43:42;;;;;;;16.60;15.10;;;;;;;17.02;69.47;101665.06;5060208;28;20055;-17
2022/05/18 06:46:07;;;;;;;17.90;16.10;;;;;;;17.12;69.64;101664.88;5062164;28;20071;-17
2022/05/18 06:48:32;;;;;;;16.45;14.93;;;;;;;17.23;70.82;101654.88;5066722;28;20043;-17
2022/05/18 06:50:58;;;;;;;16.55;15.05;;;;;;;17.35;70.15;101659.09;5067158;28;20480;-17
2022/05/18 06:53:23;;;;;;;17.42;15.77;;;;;;;17.45;70.59;101651.75;5060383;28;20508;-17
2022/05/18 06:55:49;;;;;;;16.63;14.95;;;;;;;17.57;69.74;101646.13;5062242;28;20047;-17
2022/05/18 06:58:15;;;;;;;18.08;16.27;;;;;;;17.69;70.08;101649.44;5059332;28;20023;-17
2022/05/18 07:00:41;;;;;;;18.27;16.67;;;;;;;17.76;69.77;101655.47;5062189;28;20029;-17
2022/05/18 07:03:06;;;;;;;18.25;16.55;;;;;;;17.86;70.34;101657.03;5060418;28;20101;-17
2022/05/18 07:05:32;;;;;;;17.77;16.08;;;;;;;17.97;69.92;101659.44;5062134;28;20577;-17
2022/05/18 07:07:57;;;;;;;18.30;16.45;;;;;;;18.04;69.91;101666.38;5063589;28;20036;-17
2022/05/18 07:10:22;;;;;;;17.90;16.13;;;;;;;18.15;70.11;101662.59;5064171;28;20027;-17
2022/05/18 07:12:48;;;;;;;18.40;16.80;;;;;;;18.27;70.36;101666.75;5065351;28;20029;-17
2022/05/18 07:15:14;;;;;;;17.63;15.98;;;;;;;18.40;70.41;101672.63;5062832;28;20021;-17
2022/05/18 07:17:41;;;;;;;17.92;16.08;;;;;;;18.50;69.24;101665.28;5063089;28;20081;-18
2022/05/18 07:20:07;;;;;;;18.45;16.75;;;;;;;18.59;69.18;101663.22;5060834;28;20109;-18
2022/05/18 07:22:32;;;;;;;17.27;15.48;;;;;;;18.70;69.55;101660.25;5059169;28;20469;-18
2022/05/18 07:24:57;;;;;;;16.90;15.30;;;;;;;18.81;69.23;101657.28;5060711;28;20063;-17
2022/05/18 07:27:23;;;;;;;16.60;14.90;;;;;;;18.94;68.72;101660.47;5060077;28;20024;-17
2022/05/18 07:29:48;;;;;;;16.30;14.77;;;;;;;19.05;69.04;101662.88;5057768;28;20070;-18
2022/05/18 07:32:13;;;;;;;16.60;14.95;;;;;;;19.12;68.87;101660.03;5058960;28;20159;-17
2022/05/18 07:34:40;;;;;;;17.05;15.48;;;;;;;19.19;68.12;101662.47;5064551;28;20058;-17
2022/05/18 07:37:07;;;;;;;17.58;15.90;;;;;;;19.28;68.10;101664.00;5064008;28;20048;-17
2022/05/18 07:39:32;;;;;;;16.55;14.93;;;;;;;19.39;67.94;101660.13;5062541;28;20030;-17
2022/05/18 07:41:59;;;;;;;14.93;13.48;;;;;;;19.45;67.71;101666.16;5063803;28;20024;-18
2022/05/18 07:44:25;;;;;;;15.88;14.40;;;;;;;19.55;67.49;101669.44;5059079;28;20020;-17
2022/05/18 07:46:50;;;;;;;13.90;12.60;;;;;;;19.66;67.60;101670.88;5063142;28;20483;-18
2022/05/18 07:49:15;;;;;;;15.45;14.15;;;;;;;19.75;67.29;101670.59;5058228;28;20060;-18
2022/05/18 07:51:41;;;;;;;14.88;13.68;;;;;;;19.83;67.29;101665.88;5058507;28;20020;-18
2022/05/18 07:54:07;;;;;;;14.55;13.05;;;;;;;19.93;66.94;101668.22;5061353;28;20040;-18
2022/05/18 07:56:34;;;;;;;13.57;12.48;;;;;;;20.05;67.08;101665.22;5066760;28;20111;-18
2022/05/18 07:59:00;;;;;;;13.70;12.35;;;;;;;20.17;67.14;101660.38;5061586;28;20379;-17
2022/05/18 08:01:25;;;;;;;13.98;12.82;;;;;;;20.29;67.01;101665.28;5063092;28;20480;-18
2022/05/18 08:03:51;;;;;;;13.57;12.27;;;;;;;20.43;66.98;101666.59;5063031;28;20062;-21
2022/05/18 08:06:16;;;;;;;15.90;14.48;;;;;;;20.50;66.29;101662.78;5056101;28;20455;-18
2022/05/18 08:08:41;;;;;;;14.57;13.32;;;;;;;20.58;66.03;101666.06;5064532;28;20043;-18
2022/05/18 08:16:35;;;;;;;13.27;12.07;;;;;;;20.96;65.74;101664.75;5060234;28;20030;-17
2022/05/18 08:19:01;;;;;;;13.07;11.88;;;;;;;21.08;65.69;101664.31;5060766;28;20388;-17
2022/05/18 08:21:27;;;;;;;12.80;11.70;;;;;;;21.21;65.70;101663.84;5059247;28;20028;-18
2022/05/18 08:23:52;;;;;;;11.95;10.85;;;;;;;21.31;65.37;101670.63;5059725;28;20046;-17
2022/05/18 08:26:18;;;;;;;12.63;11.52;;;;;;;21.43;64.72;101676.41;5059953;28;20021;-18
2022/05/18 08:28:43;;;;;;;14.30;12.00;;;;;;;21.50;64.42;101672.53;5065186;28;20020;-17
2022/05/18 08:31:08;;;;;;;11.65;10.65;;;;;;;21.61;64.68;101673.00;5063244;28;20722;-17
2022/05/18 08:33:34;;;;;;;11.88;10.50;;;;;;;21.74;64.72;101678.78;5063787;28;20468;-18
2022/05/18 08:36:05;;;;;;;11.65;10.63;;;;;;;21.86;64.34;101674.72;5061950;28;20464;-17
2022/05/18 08:38:31;;;;;;;11.27;10.27;;;;;;;21.95;64.06;101675.28;5063978;28;20476;-18
2022/05/18 08:41:22;;;;;;;11.18;10.27;;;;;;;22.05;63.36;101682.03;5057289;28;20029;-17
2022/05/18 08:43:51;;;;;;;10.35;9.48;;;;;;;22.17;63.50;101675.25;5062019;28;20024;-17
2022/05/18 08:46:41;;;;;;;9.93;9.13;;;;;;;22.31;63.57;101672.00;5063288;28;20129;-17
2022/05/18 08:49:09;;;;;;;9.68;8.57;;;;;;;22.46;63.11;101670.44;5063939;28;20032;-17
2022/05/18 08:52:10;;;;;;;11.07;9.98;;;;;;;22.53;62.07;101680.00;5059813;28;20094;-18
2022/05/18 08:54:45;;;;;;;10.43;9.52;;;;;;;22.61;62.15;101678.81;5062507;28;20020;-17
2022/05/18 08:57:25;;;;;;;9.75;8.95;;;;;;;22.71;61.97;101665.84;5061575;28;20021;-17
2022/05/18 08:59:55;;;;;;;10.20;9.30;;;;;;;22.83;62.12;101667.97;5054675;28;20052;-18
2022/05/18 09:02:26;;;;;;;10.05;9.15;;;;;;;22.92;61.73;101663.97;5065021;28;20365;-17
2022/05/18 09:04:55;;;;;;;9.70;8.88;;;;;;;23.01;61.52;101660.00;5076367;28;20055;-18
2022/05/18 09:07:23;;;;;;;9.68;8.88;;;;;;;23.13;61.45;101664.81;5065227;28;20022;-18
2022/05/18 09:10:12;;;;;;;10.27;9.38;;;;;;;23.18;60.94;101668.13;5060869;28;20024;-18
2022/05/18 09:12:46;;;;;;;9.23;8.43;;;;;;;23.34;61.57;101672.78;5060665;28;20020;-18
2022/05/18 09:15:14;;;;;;;9.52;8.73;;;;;;;23.42;60.69;101670.66;5062783;28;20040;-18
2022/05/18 09:17:42;;;;;;;8.45;7.75;;;;;;;23.52;60.99;101668.41;5065001;28;20040;-18
2022/05/18 09:20:19;;;;;;;9.02;8.32;;;;;;;23.58;60.83;101670.78;5062174;28;20070;-18
2022/05/18 09:23:14;;;;;;;9.30;8.35;;;;;;;23.72;61.15;101669.25;5059290;28;20075;-18
2022/05/18 09:25:52;;;;;;;10.07;8.15;;;;;;;23.79;60.71;101662.63;5065786;28;20042;-17
2022/05/18 09:28:23;;;;;;;11.07;7.93;;;;;;;23.83;59.87;101664.22;5061292;28;20028;-18
2022/05/18 09:31:12;;;;;;;7.88;7.25;;;;;;;23.91;59.10;101665.66;5060290;28;20033;-18
2022/05/18 09:33:53;;;;;;;8.32;7.63;;;;;;;23.99;58.95;101668.81;5063591;28;20095;-17
2022/05/18 09:37:00;;;;;;;8.63;7.82;;;;;;;24.12;59.71;101671.81;5063161;28;20032;-18
2022/05/18 09:39:28;;;;;;;8.13;7.53;;;;;;;24.23;59.74;101673.94;5048126;28;20033;-18
2022/05/18 09:41:59;;;;;;;7.45;6.85;;;;;;;24.47;59.77;101676.31;5062300;28;20028;-17
2022/05/18 09:44:46;;;;;;;7.72;7.13;;;;;;;24.45;59.32;101676.38;5057879;28;20100;-17
2022/05/18 09:47:15;;;;;;;7.05;6.55;;;;;;;24.45;59.94;101671.00;5061668;28;20175;-17
2022/05/18 09:49:50;;;;;;;7.45;6.85;;;;;;;24.52;58.93;101670.69;5061829;28;20052;-18
2022/05/18 09:52:18;;;;;;;7.30;6.70;;;;;;;24.56;58.58;101670.44;5062366;28;20053;-17
2022/05/18 09:54:43;;;;;;;7.82;7.13;;;;;;;24.63;58.65;101678.19;5055895;28;20031;-17
2022/05/18 09:57:13;;;;;;;6.60;6.00;;;;;;;24.73;58.36;101674.06;5065438;28;20029;-18
2022/05/18 09:59:52;;;;;;;7.15;6.55;;;;;;;24.85;58.49;101672.53;5068900;28;20076;-17
2022/05/18 10:07:55;;;;;;;6.40;5.90;;;;;;;25.14;58.42;101659.28;5060033;28;20052;-17
2022/05/18 10:10:30;;;;;;;6.70;6.20;;;;;;;25.22;57.42;101664.28;5066536;28;21222;-17
2022/05/18 10:12:57;;;;;;;8.35;7.05;;;;;;;25.30;57.28;101655.72;5064437;28;20400;-18
2022/05/18 10:15:26;;;;;;;6.80;6.30;;;;;;;25.38;57.48;101656.19;5066426;28;20485;-17
2022/05/18 10:17:54;;;;;;;6.97;6.28;;;;;;;25.49;57.53;101661.84;5062206;28;20390;-18
2022/05/18 10:20:29;;;;;;;6.65;6.05;;;;;;;25.57;57.57;101653.28;5063561;28;20558;-17
2022/05/18 10:22:55;;;;;;;6.55;5.95;;;;;;;25.59;57.06;101645.13;5065191;28;20024;-18
2022/05/18 10:25:39;;;;;;;6.88;6.38;;;;;;;25.69;56.94;101650.88;5050214;28;20024;-18
2022/05/18 10:28:23;;;;;;;6.30;5.90;;;;;;;25.73;56.86;101645.22;5080462;28;20020;-18
2022/05/18 10:31:01;;;;;;;6.50;6.00;;;;;;;25.85;56.38;101645.47;5060364;28;20016;-18
2022/05/18 10:33:34;;;;;;;6.75;6.15;;;;;;;25.93;55.99;101643.16;5063330;28;20029;-18
2022/05/18 10:36:14;;;;;;;6.55;5.82;;;;;;;25.99;55.96;101634.72;5065908;28;20041;-18
2022/05/18 10:38:52;;;;;;;6.68;6.18;;;;;;;26.06;55.79;101631.63;5067928;28;20024;-18
2022/05/18 10:41:21;;;;;;;6.72;6.10;;;;;;;26.13;55.97;101627.59;5064393;28;20508;-18
2022/05/18 10:44:25;;;;;;;6.57;6.07;;;;;;;26.20;56.07;101622.66;5063339;28;20505;-18
2022/05/18 10:46:51;;;;;;;6.97;6.47;;;;;;;26.26;55.79;101617.78;5060310;28;20036;-18
2022/05/18 10:49:32;;;;;;;7.25;6.55;;;;;;;26.37;55.82;101616.25;5061475;28;20044;-18
2022/05/18 10:52:12;;;;;;;;;;;;;;;26.44;55.07;101611.38;5064826;28;20020;-18
2022/05/18 10:54:38;;;;;;;6.63;6.00;;;;;;;26.48;54.99;101618.31;5063687;28;20356;-18
2022/05/18 10:57:11;;;;;;;7.22;6.50;;;;;;;26.45;54.79;101615.81;5057154;28;20036;-18
2022/05/18 10:59:48;;;;;;;6.35;5.70;;;;;;;26.49;54.79;101601.13;5062363;28;20032;-18
2022/05/18 11:02:24;;;;;;;6.70;6.05;;;;;;;26.49;54.65;101607.41;5064389;28;20050;-18
2022/05/18 11:05:12;;;;;;;7.07;6.35;;;;;;;26.47;54.32;101605.78;5063849;28;20047;-18
2022/05/18 11:07:37;;;;;;;5.55;5.05;;;;;;;26.51;54.32;101610.88;5056647;28;20052;-17
2022/05/18 11:10:03;;;;;;;6.45;5.93;;;;;;;26.59;54.25;101601.41;5062296;28;20500;-18
2022/05/18 11:12:49;;;;;;;6.38;5.75;;;;;;;26.63;54.02;101601.13;5067933;28;20039;-18
2022/05/18 11:15:31;;;;;;;7.55;5.57;;;;;;;26.71;53.78;101595.22;5060770;28;20244;-18
2022/05/18 11:18:07;;;;;;;5.57;5.05;;;;;;;26.80;53.39;101588.34;5077466;28;20025;-18
2022/05/18 11:21:02;;;;;;;5.72;5.30;;;;;;;26.90;53.39;101594.03;5048082;28;20041;-18
2022/05/18 11:23:34;;;;;;;5.35;5.03;;;;;;;26.95;53.65;101589.22;5065459;28;20115;-18
2022/05/18 11:26:18;;;;;;;6.03;5.45;;;;;;;27.02;53.41;101587.91;5062438;28;20034;-18
2022/05/18 11:28:43;;;;;;;5.80;5.38;;;;;;;27.12;53.42;101593.56;5066299;28;20043;-18
2022/05/18 11:31:52;;;;;;;5.97;5.38;;;;;;;27.20;53.25;101584.94;5062329;28;20013;-18
2022/05/18 11:34:41;;;;;;;5.78;5.30;;;;;;;27.32;53.44;101585.09;5061519;28;20383;-18
2022/05/18 11:37:21;;;;;;;5.45;4.95;;;;;;;27.40;53.30;101578.22;5063723;28;20535;-18
2022/05/18 11:39:58;;;;;;;6.20;5.60;;;;;;;27.57;53.44;101583.47;5063095;28;20036;-18